sensor_id;sensor_type;location;lat;lon;timestamp;P1;durP1;ratioP1;P2;durP2;ratioP2
62574;SDS011;53112;45.602;11.904;2023-04-16T00:02:17;2.40;;;1.90;;
62574;SDS011;53112;45.602;11.904;2023-04-16T00:04:49;2.30;;;1.80;;
62574;SDS011;53112;45.602;11.904;2023-04-16T00:07:15;2.15;;;1.90;;
62574;SDS011;53112;45.602;11.904;2023-04-16T00:09:41;2.33;;;1.90;;
62574;SDS011;53112;45.602;11.904;2023-04-16T00:12:07;2.88;;;2.05;;
62574;SDS011;53112;45.602;11.904;2023-04-16T00:14:33;2.78;;;1.88;;
62574;SDS011;53112;45.602;11.904;2023-04-16T00:16:58;3.00;;;1.90;;
62574;SDS011;53112;45.602;11.904;2023-04-16T00:19:24;2.00;;;1.80;;
62574;SDS011;53112;45.602;11.904;2023-04-16T00:21:50;2.20;;;1.90;;
62574;SDS011;53112;45.602;11.904;2023-04-16T00:24:16;3.10;;;2.00;;
62574;SDS011;53112;45.602;11.904;2023-04-16T00:26:42;2.72;;;1.90;;
62574;SDS011;53112;45.602;11.904;2023-04-16T00:29:10;2.67;;;1.98;;
62574;SDS011;53112;45.602;11.904;2023-04-16T00:31:36;2.28;;;1.90;;
62574;SDS011;53112;45.602;11.904;2023-04-16T00:34:01;2.65;;;2.03;;
62574;SDS011;53112;45.602;11.904;2023-04-16T00:36:27;3.33;;;2.00;;
62574;SDS011;53112;45.602;11.904;2023-04-16T00:38:54;3.40;;;1.90;;
62574;SDS011;53112;45.602;11.904;2023-04-16T00:41:20;2.30;;;2.00;;
62574;SDS011;53112;45.602;11.904;2023-04-16T00:43:47;2.05;;;1.85;;
62574;SDS011;53112;45.602;11.904;2023-04-16T00:46:14;3.63;;;1.70;;
62574;SDS011;53112;45.602;11.904;2023-04-16T00:48:42;2.67;;;1.70;;
62574;SDS011;53112;45.602;11.904;2023-04-16T00:51:08;2.15;;;1.90;;
62574;SDS011;53112;45.602;11.904;2023-04-16T00:53:35;3.40;;;1.90;;
62574;SDS011;53112;45.602;11.904;2023-04-16T00:56:02;2.97;;;2.05;;
62574;SDS011;53112;45.602;11.904;2023-04-16T00:58:29;2.47;;;1.98;;
62574;SDS011;53112;45.602;11.904;2023-04-16T01:00:55;2.25;;;1.90;;
62574;SDS011;53112;45.602;11.904;2023-04-16T01:03:22;3.58;;;2.10;;
62574;SDS011;53112;45.602;11.904;2023-04-16T01:05:49;2.20;;;1.90;;
62574;SDS011;53112;45.602;11.904;2023-04-16T01:08:18;2.85;;;2.00;;
62574;SDS011;53112;45.602;11.904;2023-04-16T01:10:46;2.35;;;1.83;;
62574;SDS011;53112;45.602;11.904;2023-04-16T01:13:12;2.78;;;1.90;;
62574;SDS011;53112;45.602;11.904;2023-04-16T01:15:39;2.72;;;1.90;;
62574;SDS011;53112;45.602;11.904;2023-04-16T01:18:17;2.55;;;1.80;;
62574;SDS011;53112;45.602;11.904;2023-04-16T01:20:45;3.22;;;2.00;;
62574;SDS011;53112;45.602;11.904;2023-04-16T01:23:12;2.60;;;1.80;;
62574;SDS011;53112;45.602;11.904;2023-04-16T01:25:38;2.58;;;1.60;;
62574;SDS011;53112;45.602;11.904;2023-04-16T01:28:04;3.00;;;1.80;;
62574;SDS011;53112;45.602;11.904;2023-04-16T01:30:31;2.72;;;1.98;;
62574;SDS011;53112;45.602;11.904;2023-04-16T01:32:56;3.17;;;2.08;;
62574;SDS011;53112;45.602;11.904;2023-04-16T01:35:23;2.47;;;1.90;;
62574;SDS011;53112;45.602;11.904;2023-04-16T01:37:49;2.05;;;1.85;;
62574;SDS011;53112;45.602;11.904;2023-04-16T01:40:16;3.17;;;2.05;;
62574;SDS011;53112;45.602;11.904;2023-04-16T01:42:42;2.05;;;1.80;;
62574;SDS011;53112;45.602;11.904;2023-04-16T01:45:08;2.10;;;1.90;;
62574;SDS011;53112;45.602;11.904;2023-04-16T01:47:34;2.15;;;1.90;;
62574;SDS011;53112;45.602;11.904;2023-04-16T01:50:00;3.17;;;2.10;;
62574;SDS011;53112;45.602;11.904;2023-04-16T01:52:27;2.47;;;1.90;;
62574;SDS011;53112;45.602;11.904;2023-04-16T01:54:53;2.22;;;1.90;;
62574;SDS011;53112;45.602;11.904;2023-04-16T01:57:18;2.20;;;1.80;;
62574;SDS011;53112;45.602;11.904;2023-04-16T01:59:44;2.45;;;1.90;;
62574;SDS011;53112;45.602;11.904;2023-04-16T02:02:11;2.05;;;1.70;;
62574;SDS011;53112;45.602;11.904;2023-04-16T02:04:39;2.10;;;1.90;;
62574;SDS011;53112;45.602;11.904;2023-04-16T02:07:06;2.70;;;1.90;;
62574;SDS011;53112;45.602;11.904;2023-04-16T02:09:33;2.13;;;1.90;;
62574;SDS011;53112;45.602;11.904;2023-04-16T02:12:00;2.17;;;1.77;;
62574;SDS011;53112;45.602;11.904;2023-04-16T02:14:29;1.98;;;1.75;;
62574;SDS011;53112;45.602;11.904;2023-04-16T02:16:55;2.03;;;1.65;;
62574;SDS011;53112;45.602;11.904;2023-04-16T02:19:21;2.10;;;1.90;;
62574;SDS011;53112;45.602;11.904;2023-04-16T02:21:47;1.98;;;1.77;;
62574;SDS011;53112;45.602;11.904;2023-04-16T02:24:15;2.70;;;1.98;;
62574;SDS011;53112;45.602;11.904;2023-04-16T02:26:41;2.80;;;2.00;;
62574;SDS011;53112;45.602;11.904;2023-04-16T02:29:07;2.42;;;1.90;;
62574;SDS011;53112;45.602;11.904;2023-04-16T02:31:33;2.03;;;1.80;;
62574;SDS011;53112;45.602;11.904;2023-04-16T02:33:59;2.20;;;1.85;;
62574;SDS011;53112;45.602;11.904;2023-04-16T02:36:25;2.10;;;1.90;;
62574;SDS011;53112;45.602;11.904;2023-04-16T02:38:51;3.40;;;1.80;;
62574;SDS011;53112;45.602;11.904;2023-04-16T02:41:17;2.47;;;1.90;;
62574;SDS011;53112;45.602;11.904;2023-04-16T02:43:43;3.75;;;2.00;;
62574;SDS011;53112;45.602;11.904;2023-04-16T02:46:09;2.42;;;1.70;;
62574;SDS011;53112;45.602;11.904;2023-04-16T02:48:35;2.30;;;1.80;;
62574;SDS011;53112;45.602;11.904;2023-04-16T02:51:01;1.98;;;1.50;;
62574;SDS011;53112;45.602;11.904;2023-04-16T02:53:27;2.45;;;1.80;;
62574;SDS011;53112;45.602;11.904;2023-04-16T02:55:53;3.13;;;1.90;;
62574;SDS011;53112;45.602;11.904;2023-04-16T02:58:20;2.72;;;2.00;;
62574;SDS011;53112;45.602;11.904;2023-04-16T03:00:48;2.33;;;2.08;;
62574;SDS011;53112;45.602;11.904;2023-04-16T03:03:14;2.05;;;1.85;;
62574;SDS011;53112;45.602;11.904;2023-04-16T03:05:41;2.80;;;2.20;;
62574;SDS011;53112;45.602;11.904;2023-04-16T03:08:07;3.30;;;2.17;;
62574;SDS011;53112;45.602;11.904;2023-04-16T03:10:33;2.72;;;2.03;;
62574;SDS011;53112;45.602;11.904;2023-04-16T03:13:00;2.08;;;1.88;;
62574;SDS011;53112;45.602;11.904;2023-04-16T03:15:26;2.05;;;1.83;;
62574;SDS011;53112;45.602;11.904;2023-04-16T03:17:52;2.10;;;1.90;;
62574;SDS011;53112;45.602;11.904;2023-04-16T03:20:18;2.88;;;2.00;;
62574;SDS011;53112;45.602;11.904;2023-04-16T03:22:44;3.63;;;1.90;;
62574;SDS011;53112;45.602;11.904;2023-04-16T03:25:11;2.42;;;2.00;;
62574;SDS011;53112;45.602;11.904;2023-04-16T03:27:37;2.70;;;2.00;;
62574;SDS011;53112;45.602;11.904;2023-04-16T03:30:04;3.67;;;1.90;;
62574;SDS011;53112;45.602;11.904;2023-04-16T03:32:32;3.03;;;1.98;;
62574;SDS011;53112;45.602;11.904;2023-04-16T03:34:58;2.50;;;1.70;;
62574;SDS011;53112;45.602;11.904;2023-04-16T03:37:24;2.03;;;1.88;;
62574;SDS011;53112;45.602;11.904;2023-04-16T03:39:49;2.42;;;2.00;;
62574;SDS011;53112;45.602;11.904;2023-04-16T03:42:15;2.60;;;1.80;;
62574;SDS011;53112;45.602;11.904;2023-04-16T03:44:41;3.25;;;1.85;;
62574;SDS011;53112;45.602;11.904;2023-04-16T03:47:07;1.92;;;1.80;;
62574;SDS011;53112;45.602;11.904;2023-04-16T03:49:33;2.10;;;1.90;;
62574;SDS011;53112;45.602;11.904;2023-04-16T03:51:59;2.17;;;1.83;;
62574;SDS011;53112;45.602;11.904;2023-04-16T03:54:25;2.55;;;1.90;;
62574;SDS011;53112;45.602;11.904;2023-04-16T03:56:51;2.17;;;1.80;;
62574;SDS011;53112;45.602;11.904;2023-04-16T03:59:17;2.92;;;2.00;;
62574;SDS011;53112;45.602;11.904;2023-04-16T04:01:43;3.53;;;1.77;;
62574;SDS011;53112;45.602;11.904;2023-04-16T04:04:09;2.10;;;1.75;;
62574;SDS011;53112;45.602;11.904;2023-04-16T04:06:38;2.30;;;1.80;;
62574;SDS011;53112;45.602;11.904;2023-04-16T04:09:04;2.00;;;1.80;;
62574;SDS011;53112;45.602;11.904;2023-04-16T04:11:30;2.35;;;1.80;;
62574;SDS011;53112;45.602;11.904;2023-04-16T04:13:56;3.03;;;1.90;;
62574;SDS011;53112;45.602;11.904;2023-04-16T04:16:22;4.35;;;2.15;;
62574;SDS011;53112;45.602;11.904;2023-04-16T04:18:47;2.70;;;2.00;;
62574;SDS011;53112;45.602;11.904;2023-04-16T04:21:14;2.55;;;2.00;;
62574;SDS011;53112;45.602;11.904;2023-04-16T04:23:40;3.17;;;1.80;;
62574;SDS011;53112;45.602;11.904;2023-04-16T04:26:06;2.25;;;1.73;;
62574;SDS011;53112;45.602;11.904;2023-04-16T04:28:33;1.73;;;1.60;;
62574;SDS011;53112;45.602;11.904;2023-04-16T04:31:00;2.20;;;1.90;;
62574;SDS011;53112;45.602;11.904;2023-04-16T04:33:26;2.20;;;1.90;;
62574;SDS011;53112;45.602;11.904;2023-04-16T04:35:53;2.10;;;1.80;;
62574;SDS011;53112;45.602;11.904;2023-04-16T04:38:20;2.63;;;1.77;;
62574;SDS011;53112;45.602;11.904;2023-04-16T04:40:52;2.15;;;1.70;;
62574;SDS011;53112;45.602;11.904;2023-04-16T04:43:18;1.98;;;1.80;;
62574;SDS011;53112;45.602;11.904;2023-04-16T04:45:45;2.53;;;1.90;;
62574;SDS011;53112;45.602;11.904;2023-04-16T04:48:11;2.50;;;2.10;;
62574;SDS011;53112;45.602;11.904;2023-04-16T04:50:37;2.13;;;1.90;;
62574;SDS011;53112;45.602;11.904;2023-04-16T04:53:05;2.47;;;1.90;;
62574;SDS011;53112;45.602;11.904;2023-04-16T04:55:39;1.92;;;1.70;;
62574;SDS011;53112;45.602;11.904;2023-04-16T04:58:05;2.97;;;2.00;;
62574;SDS011;53112;45.602;11.904;2023-04-16T05:00:32;2.92;;;2.20;;
62574;SDS011;53112;45.602;11.904;2023-04-16T05:03:02;3.53;;;2.08;;
62574;SDS011;53112;45.602;11.904;2023-04-16T05:05:29;2.37;;;1.90;;
62574;SDS011;53112;45.602;11.904;2023-04-16T05:07:55;2.28;;;1.73;;
62574;SDS011;53112;45.602;11.904;2023-04-16T05:10:21;2.65;;;2.00;;
62574;SDS011;53112;45.602;11.904;2023-04-16T05:12:47;2.47;;;1.80;;
62574;SDS011;53112;45.602;11.904;2023-04-16T05:15:13;2.13;;;1.85;;
62574;SDS011;53112;45.602;11.904;2023-04-16T05:17:39;2.08;;;1.88;;
62574;SDS011;53112;45.602;11.904;2023-04-16T05:20:06;1.98;;;1.70;;
62574;SDS011;53112;45.602;11.904;2023-04-16T05:22:33;1.98;;;1.80;;
62574;SDS011;53112;45.602;11.904;2023-04-16T05:24:59;2.47;;;1.83;;
62574;SDS011;53112;45.602;11.904;2023-04-16T05:27:25;2.53;;;1.95;;
62574;SDS011;53112;45.602;11.904;2023-04-16T05:29:51;2.47;;;1.90;;
62574;SDS011;53112;45.602;11.904;2023-04-16T05:32:16;3.15;;;2.08;;
62574;SDS011;53112;45.602;11.904;2023-04-16T05:34:42;2.83;;;1.90;;
62574;SDS011;53112;45.602;11.904;2023-04-16T05:37:08;2.30;;;1.88;;
62574;SDS011;53112;45.602;11.904;2023-04-16T05:39:34;2.88;;;1.75;;
62574;SDS011;53112;45.602;11.904;2023-04-16T05:42:00;2.10;;;1.75;;
62574;SDS011;53112;45.602;11.904;2023-04-16T05:44:26;3.20;;;2.08;;
62574;SDS011;53112;45.602;11.904;2023-04-16T05:46:52;2.83;;;1.80;;
62574;SDS011;53112;45.602;11.904;2023-04-16T05:49:18;1.90;;;1.70;;
62574;SDS011;53112;45.602;11.904;2023-04-16T05:51:44;2.58;;;1.80;;
62574;SDS011;53112;45.602;11.904;2023-04-16T05:54:10;2.85;;;1.80;;
62574;SDS011;53112;45.602;11.904;2023-04-16T05:56:36;2.95;;;1.80;;
62574;SDS011;53112;45.602;11.904;2023-04-16T05:59:02;2.88;;;1.80;;
62574;SDS011;53112;45.602;11.904;2023-04-16T06:01:27;2.40;;;1.70;;
62574;SDS011;53112;45.602;11.904;2023-04-16T06:03:53;2.90;;;1.80;;
62574;SDS011;53112;45.602;11.904;2023-04-16T06:06:20;2.15;;;1.70;;
62574;SDS011;53112;45.602;11.904;2023-04-16T06:08:45;3.25;;;1.80;;
62574;SDS011;53112;45.602;11.904;2023-04-16T06:11:11;3.83;;;1.83;;
62574;SDS011;53112;45.602;11.904;2023-04-16T06:13:37;2.90;;;2.05;;
62574;SDS011;53112;45.602;11.904;2023-04-16T06:16:03;4.30;;;1.90;;
62574;SDS011;53112;45.602;11.904;2023-04-16T06:18:30;2.95;;;1.80;;
62574;SDS011;53112;45.602;11.904;2023-04-16T06:20:55;2.72;;;2.05;;
62574;SDS011;53112;45.602;11.904;2023-04-16T06:23:23;2.80;;;1.73;;
62574;SDS011;53112;45.602;11.904;2023-04-16T06:25:49;2.28;;;1.60;;
62574;SDS011;53112;45.602;11.904;2023-04-16T06:28:15;3.47;;;1.80;;
62574;SDS011;53112;45.602;11.904;2023-04-16T06:30:41;3.78;;;1.90;;
62574;SDS011;53112;45.602;11.904;2023-04-16T06:33:07;2.22;;;1.80;;
62574;SDS011;53112;45.602;11.904;2023-04-16T06:35:33;3.88;;;1.80;;
62574;SDS011;53112;45.602;11.904;2023-04-16T06:38:00;3.00;;;1.85;;
62574;SDS011;53112;45.602;11.904;2023-04-16T06:40:25;2.33;;;1.77;;
62574;SDS011;53112;45.602;11.904;2023-04-16T06:42:52;2.53;;;1.92;;
62574;SDS011;53112;45.602;11.904;2023-04-16T06:45:18;3.35;;;1.80;;
62574;SDS011;53112;45.602;11.904;2023-04-16T06:47:44;3.42;;;1.73;;
62574;SDS011;53112;45.602;11.904;2023-04-16T06:50:10;3.22;;;1.70;;
62574;SDS011;53112;45.602;11.904;2023-04-16T06:52:36;3.00;;;1.80;;
62574;SDS011;53112;45.602;11.904;2023-04-16T06:55:02;2.30;;;1.60;;
62574;SDS011;53112;45.602;11.904;2023-04-16T06:57:28;3.08;;;1.65;;
62574;SDS011;53112;45.602;11.904;2023-04-16T06:59:54;4.30;;;1.80;;
62574;SDS011;53112;45.602;11.904;2023-04-16T07:02:20;5.10;;;2.25;;
62574;SDS011;53112;45.602;11.904;2023-04-16T07:04:45;3.20;;;1.98;;
62574;SDS011;53112;45.602;11.904;2023-04-16T07:07:11;4.25;;;1.90;;
62574;SDS011;53112;45.602;11.904;2023-04-16T07:09:37;2.28;;;1.80;;
62574;SDS011;53112;45.602;11.904;2023-04-16T07:12:03;4.35;;;2.20;;
62574;SDS011;53112;45.602;11.904;2023-04-16T07:14:31;3.28;;;2.00;;
62574;SDS011;53112;45.602;11.904;2023-04-16T07:16:56;2.60;;;1.95;;
62574;SDS011;53112;45.602;11.904;2023-04-16T07:19:22;2.92;;;2.10;;
62574;SDS011;53112;45.602;11.904;2023-04-16T07:21:48;2.10;;;1.90;;
62574;SDS011;53112;45.602;11.904;2023-04-16T07:24:14;3.05;;;2.03;;
62574;SDS011;53112;45.602;11.904;2023-04-16T07:26:40;2.38;;;1.88;;
62574;SDS011;53112;45.602;11.904;2023-04-16T07:29:06;2.38;;;1.80;;
62574;SDS011;53112;45.602;11.904;2023-04-16T07:31:32;2.33;;;1.83;;
62574;SDS011;53112;45.602;11.904;2023-04-16T07:33:58;3.00;;;2.00;;
62574;SDS011;53112;45.602;11.904;2023-04-16T07:36:24;2.13;;;1.80;;
62574;SDS011;53112;45.602;11.904;2023-04-16T07:38:51;2.50;;;1.75;;
62574;SDS011;53112;45.602;11.904;2023-04-16T07:41:17;2.92;;;1.80;;
62574;SDS011;53112;45.602;11.904;2023-04-16T07:43:43;2.78;;;1.80;;
62574;SDS011;53112;45.602;11.904;2023-04-16T07:46:09;2.53;;;2.00;;
62574;SDS011;53112;45.602;11.904;2023-04-16T07:48:35;2.40;;;1.73;;
62574;SDS011;53112;45.602;11.904;2023-04-16T07:51:01;3.95;;;1.75;;
62574;SDS011;53112;45.602;11.904;2023-04-16T07:53:27;2.65;;;1.70;;
62574;SDS011;53112;45.602;11.904;2023-04-16T07:55:53;3.13;;;1.88;;
62574;SDS011;53112;45.602;11.904;2023-04-16T07:58:19;2.63;;;1.80;;
62574;SDS011;53112;45.602;11.904;2023-04-16T08:00:45;3.58;;;1.90;;
62574;SDS011;53112;45.602;11.904;2023-04-16T08:03:11;5.85;;;1.90;;
62574;SDS011;53112;45.602;11.904;2023-04-16T08:05:39;2.65;;;1.90;;
62574;SDS011;53112;45.602;11.904;2023-04-16T08:08:05;1.85;;;1.75;;
62574;SDS011;53112;45.602;11.904;2023-04-16T08:10:31;3.60;;;1.90;;
62574;SDS011;53112;45.602;11.904;2023-04-16T08:13:01;3.67;;;1.80;;
62574;SDS011;53112;45.602;11.904;2023-04-16T08:15:27;4.22;;;2.00;;
62574;SDS011;53112;45.602;11.904;2023-04-16T08:17:52;3.65;;;1.90;;
62574;SDS011;53112;45.602;11.904;2023-04-16T08:20:18;2.45;;;1.70;;
62574;SDS011;53112;45.602;11.904;2023-04-16T08:22:44;1.63;;;1.48;;
62574;SDS011;53112;45.602;11.904;2023-04-16T08:25:10;4.22;;;1.80;;
62574;SDS011;53112;45.602;11.904;2023-04-16T08:27:36;2.97;;;2.10;;
62574;SDS011;53112;45.602;11.904;2023-04-16T08:30:02;2.22;;;1.80;;
62574;SDS011;53112;45.602;11.904;2023-04-16T08:32:29;2.35;;;1.73;;
62574;SDS011;53112;45.602;11.904;2023-04-16T08:34:55;2.67;;;1.80;;
62574;SDS011;53112;45.602;11.904;2023-04-16T08:37:21;2.45;;;1.73;;
62574;SDS011;53112;45.602;11.904;2023-04-16T08:39:47;2.15;;;1.80;;
62574;SDS011;53112;45.602;11.904;2023-04-16T08:42:23;3.17;;;1.70;;
62574;SDS011;53112;45.602;11.904;2023-04-16T08:45:07;2.72;;;1.80;;
62574;SDS011;53112;45.602;11.904;2023-04-16T08:47:38;2.57;;;1.63;;
62574;SDS011;53112;45.602;11.904;2023-04-16T08:50:05;2.20;;;1.60;;
62574;SDS011;53112;45.602;11.904;2023-04-16T08:52:36;1.80;;;1.50;;
62574;SDS011;53112;45.602;11.904;2023-04-16T08:55:10;2.65;;;1.75;;
62574;SDS011;53112;45.602;11.904;2023-04-16T08:57:43;2.45;;;1.65;;
62574;SDS011;53112;45.602;11.904;2023-04-16T09:00:13;1.88;;;1.40;;
62574;SDS011;53112;45.602;11.904;2023-04-16T09:02:40;2.05;;;1.40;;
62574;SDS011;53112;45.602;11.904;2023-04-16T09:05:07;1.50;;;1.40;;
62574;SDS011;53112;45.602;11.904;2023-04-16T09:07:34;1.45;;;1.35;;
62574;SDS011;53112;45.602;11.904;2023-04-16T09:10:02;1.50;;;1.40;;
62574;SDS011;53112;45.602;11.904;2023-04-16T09:12:29;1.50;;;1.40;;
62574;SDS011;53112;45.602;11.904;2023-04-16T09:14:55;1.42;;;1.33;;
62574;SDS011;53112;45.602;11.904;2023-04-16T09:17:25;1.58;;;1.42;;
62574;SDS011;53112;45.602;11.904;2023-04-16T09:19:52;1.70;;;1.40;;
62574;SDS011;53112;45.602;11.904;2023-04-16T09:22:19;3.13;;;1.45;;
62574;SDS011;53112;45.602;11.904;2023-04-16T09:24:45;1.65;;;1.50;;
62574;SDS011;53112;45.602;11.904;2023-04-16T09:27:11;1.55;;;1.45;;
62574;SDS011;53112;45.602;11.904;2023-04-16T09:29:38;1.42;;;1.33;;
62574;SDS011;53112;45.602;11.904;2023-04-16T09:32:09;1.58;;;1.40;;
62574;SDS011;53112;45.602;11.904;2023-04-16T09:37:27;2.10;;;1.60;;
62574;SDS011;53112;45.602;11.904;2023-04-16T09:40:03;1.77;;;1.40;;
62574;SDS011;53112;45.602;11.904;2023-04-16T09:42:30;1.73;;;1.40;;
62574;SDS011;53112;45.602;11.904;2023-04-16T09:44:58;2.58;;;1.30;;
62574;SDS011;53112;45.602;11.904;2023-04-16T09:47:25;1.65;;;1.30;;
62574;SDS011;53112;45.602;11.904;2023-04-16T09:50:03;2.45;;;1.60;;
62574;SDS011;53112;45.602;11.904;2023-04-16T09:52:29;2.05;;;1.48;;
62574;SDS011;53112;45.602;11.904;2023-04-16T09:54:55;1.35;;;1.25;;
62574;SDS011;53112;45.602;11.904;2023-04-16T09:57:22;1.80;;;1.35;;
62574;SDS011;53112;45.602;11.904;2023-04-16T09:59:52;1.30;;;1.20;;
62574;SDS011;53112;45.602;11.904;2023-04-16T10:02:25;2.25;;;1.30;;
62574;SDS011;53112;45.602;11.904;2023-04-16T10:04:52;4.13;;;1.27;;
62574;SDS011;53112;45.602;11.904;2023-04-16T10:07:19;2.95;;;1.23;;
62574;SDS011;53112;45.602;11.904;2023-04-16T10:09:48;1.65;;;1.38;;
62574;SDS011;53112;45.602;11.904;2023-04-16T10:12:16;2.10;;;1.30;;
62574;SDS011;53112;45.602;11.904;2023-04-16T10:14:44;2.55;;;1.52;;
62574;SDS011;53112;45.602;11.904;2023-04-16T10:17:10;2.13;;;1.58;;
62574;SDS011;53112;45.602;11.904;2023-04-16T10:19:36;2.92;;;1.50;;
62574;SDS011;53112;45.602;11.904;2023-04-16T10:22:02;1.50;;;1.20;;
62574;SDS011;53112;45.602;11.904;2023-04-16T10:24:30;1.40;;;1.10;;
62574;SDS011;53112;45.602;11.904;2023-04-16T10:26:57;1.33;;;1.08;;
62574;SDS011;53112;45.602;11.904;2023-04-16T10:29:24;1.77;;;1.20;;
62574;SDS011;53112;45.602;11.904;2023-04-16T10:31:53;3.00;;;1.42;;
62574;SDS011;53112;45.602;11.904;2023-04-16T10:34:20;2.42;;;1.30;;
62574;SDS011;53112;45.602;11.904;2023-04-16T10:36:51;1.30;;;1.20;;
62574;SDS011;53112;45.602;11.904;2023-04-16T10:39:21;2.22;;;1.38;;
62574;SDS011;53112;45.602;11.904;2023-04-16T10:41:49;1.40;;;1.30;;
62574;SDS011;53112;45.602;11.904;2023-04-16T10:44:16;3.17;;;1.40;;
62574;SDS011;53112;45.602;11.904;2023-04-16T10:46:46;1.30;;;1.20;;
62574;SDS011;53112;45.602;11.904;2023-04-16T10:51:57;1.52;;;1.27;;
62574;SDS011;53112;45.602;11.904;2023-04-16T10:54:34;1.92;;;1.40;;
62574;SDS011;53112;45.602;11.904;2023-04-16T10:57:04;2.40;;;1.20;;
62574;SDS011;53112;45.602;11.904;2023-04-16T10:59:33;3.67;;;1.45;;
62574;SDS011;53112;45.602;11.904;2023-04-16T11:02:05;1.63;;;1.30;;
62574;SDS011;53112;45.602;11.904;2023-04-16T11:04:37;2.30;;;1.38;;
62574;SDS011;53112;45.602;11.904;2023-04-16T11:12:22;2.50;;;1.27;;
62574;SDS011;53112;45.602;11.904;2023-04-16T11:15:01;2.45;;;1.30;;
62574;SDS011;53112;45.602;11.904;2023-04-16T11:22:48;1.30;;;1.20;;
62574;SDS011;53112;45.602;11.904;2023-04-16T11:25:20;2.53;;;1.30;;
62574;SDS011;53112;45.602;11.904;2023-04-16T11:27:48;1.27;;;1.17;;
62574;SDS011;53112;45.602;11.904;2023-04-16T11:30:15;1.60;;;1.20;;
62574;SDS011;53112;45.602;11.904;2023-04-16T11:32:42;2.35;;;1.83;;
62574;SDS011;53112;45.602;11.904;2023-04-16T11:35:15;1.77;;;1.20;;
62574;SDS011;53112;45.602;11.904;2023-04-16T11:37:42;2.58;;;1.35;;
62574;SDS011;53112;45.602;11.904;2023-04-16T11:40:09;1.35;;;1.20;;
62574;SDS011;53112;45.602;11.904;2023-04-16T11:42:35;1.30;;;1.20;;
62574;SDS011;53112;45.602;11.904;2023-04-16T11:45:05;1.25;;;1.15;;
62574;SDS011;53112;45.602;11.904;2023-04-16T11:47:40;1.50;;;1.20;;
62574;SDS011;53112;45.602;11.904;2023-04-16T11:52:56;1.20;;;1.10;;
62574;SDS011;53112;45.602;11.904;2023-04-16T11:55:33;1.92;;;1.20;;
62574;SDS011;53112;45.602;11.904;2023-04-16T11:58:11;1.40;;;1.20;;
62574;SDS011;53112;45.602;11.904;2023-04-16T12:00:37;1.30;;;1.20;;
62574;SDS011;53112;45.602;11.904;2023-04-16T12:03:03;1.73;;;1.20;;
62574;SDS011;53112;45.602;11.904;2023-04-16T12:05:33;1.80;;;1.30;;
62574;SDS011;53112;45.602;11.904;2023-04-16T12:10:57;1.38;;;1.27;;
62574;SDS011;53112;45.602;11.904;2023-04-16T12:13:23;1.10;;;1.10;;
62574;SDS011;53112;45.602;11.904;2023-04-16T12:15:51;1.25;;;1.10;;
62574;SDS011;53112;45.602;11.904;2023-04-16T12:18:18;1.65;;;1.17;;
62574;SDS011;53112;45.602;11.904;2023-04-16T12:20:47;1.75;;;1.40;;
62574;SDS011;53112;45.602;11.904;2023-04-16T12:23:26;1.80;;;1.10;;
62574;SDS011;53112;45.602;11.904;2023-04-16T12:25:53;1.27;;;1.17;;
62574;SDS011;53112;45.602;11.904;2023-04-16T12:28:27;2.15;;;1.40;;
62574;SDS011;53112;45.602;11.904;2023-04-16T12:30:57;1.17;;;1.05;;
62574;SDS011;53112;45.602;11.904;2023-04-16T12:33:23;1.20;;;1.10;;
62574;SDS011;53112;45.602;11.904;2023-04-16T12:35:49;1.10;;;1.08;;
62574;SDS011;53112;45.602;11.904;2023-04-16T12:38:15;1.65;;;1.30;;
62574;SDS011;53112;45.602;11.904;2023-04-16T12:40:41;3.05;;;1.17;;
62574;SDS011;53112;45.602;11.904;2023-04-16T12:43:08;1.20;;;1.10;;
62574;SDS011;53112;45.602;11.904;2023-04-16T12:45:34;1.05;;;1.05;;
62574;SDS011;53112;45.602;11.904;2023-04-16T12:48:00;1.55;;;1.10;;
62574;SDS011;53112;45.602;11.904;2023-04-16T12:50:26;1.33;;;1.20;;
62574;SDS011;53112;45.602;11.904;2023-04-16T12:52:54;2.30;;;1.20;;
62574;SDS011;53112;45.602;11.904;2023-04-16T12:55:20;1.33;;;1.20;;
62574;SDS011;53112;45.602;11.904;2023-04-16T12:57:46;1.23;;;1.13;;
62574;SDS011;53112;45.602;11.904;2023-04-16T13:00:17;1.30;;;1.20;;
62574;SDS011;53112;45.602;11.904;2023-04-16T13:02:44;1.90;;;1.27;;
62574;SDS011;53112;45.602;11.904;2023-04-16T13:05:10;1.20;;;1.10;;
62574;SDS011;53112;45.602;11.904;2023-04-16T13:07:38;1.20;;;1.10;;
62574;SDS011;53112;45.602;11.904;2023-04-16T13:10:05;2.08;;;1.15;;
62574;SDS011;53112;45.602;11.904;2023-04-16T13:12:31;1.38;;;1.10;;
62574;SDS011;53112;45.602;11.904;2023-04-16T13:14:57;1.00;;;1.00;;
62574;SDS011;53112;45.602;11.904;2023-04-16T13:17:23;1.30;;;1.20;;
62574;SDS011;53112;45.602;11.904;2023-04-16T13:19:49;1.60;;;1.10;;
62574;SDS011;53112;45.602;11.904;2023-04-16T13:22:15;1.25;;;1.10;;
62574;SDS011;53112;45.602;11.904;2023-04-16T13:24:41;1.20;;;1.10;;
62574;SDS011;53112;45.602;11.904;2023-04-16T13:27:08;2.47;;;1.20;;
62574;SDS011;53112;45.602;11.904;2023-04-16T13:29:34;1.35;;;1.13;;
62574;SDS011;53112;45.602;11.904;2023-04-16T13:32:02;2.58;;;1.20;;
62574;SDS011;53112;45.602;11.904;2023-04-16T13:34:29;2.58;;;1.20;;
62574;SDS011;53112;45.602;11.904;2023-04-16T13:36:55;1.20;;;1.10;;
62574;SDS011;53112;45.602;11.904;2023-04-16T13:39:21;3.53;;;1.20;;
62574;SDS011;53112;45.602;11.904;2023-04-16T13:41:47;1.40;;;1.10;;
62574;SDS011;53112;45.602;11.904;2023-04-16T13:44:13;3.00;;;1.30;;
62574;SDS011;53112;45.602;11.904;2023-04-16T13:46:39;1.50;;;1.17;;
62574;SDS011;53112;45.602;11.904;2023-04-16T13:49:07;3.30;;;1.50;;
62574;SDS011;53112;45.602;11.904;2023-04-16T13:51:33;2.72;;;1.27;;
62574;SDS011;53112;45.602;11.904;2023-04-16T13:54:00;1.55;;;1.40;;
62574;SDS011;53112;45.602;11.904;2023-04-16T13:56:26;1.35;;;1.25;;
62574;SDS011;53112;45.602;11.904;2023-04-16T13:58:52;1.70;;;1.30;;
62574;SDS011;53112;45.602;11.904;2023-04-16T14:01:18;1.88;;;1.40;;
62574;SDS011;53112;45.602;11.904;2023-04-16T14:03:44;3.50;;;1.50;;
62574;SDS011;53112;45.602;11.904;2023-04-16T14:06:10;2.67;;;1.55;;
62574;SDS011;53112;45.602;11.904;2023-04-16T14:08:35;2.13;;;1.42;;
62574;SDS011;53112;45.602;11.904;2023-04-16T14:11:02;3.60;;;1.65;;
62574;SDS011;53112;45.602;11.904;2023-04-16T14:13:30;17.88;;;6.50;;
62574;SDS011;53112;45.602;11.904;2023-04-16T14:15:56;39.58;;;15.77;;
62574;SDS011;53112;45.602;11.904;2023-04-16T14:18:22;61.30;;;22.13;;
62574;SDS011;53112;45.602;11.904;2023-04-16T14:20:48;77.88;;;27.58;;
62574;SDS011;53112;45.602;11.904;2023-04-16T14:23:14;81.85;;;33.47;;
62574;SDS011;53112;45.602;11.904;2023-04-16T14:25:40;111.68;;;41.85;;
62574;SDS011;53112;45.602;11.904;2023-04-16T14:28:06;136.95;;;48.22;;
62574;SDS011;53112;45.602;11.904;2023-04-16T14:30:33;139.23;;;49.50;;
62574;SDS011;53112;45.602;11.904;2023-04-16T14:32:59;147.60;;;53.67;;
62574;SDS011;53112;45.602;11.904;2023-04-16T14:35:25;159.35;;;57.75;;
62574;SDS011;53112;45.602;11.904;2023-04-16T14:37:51;153.35;;;56.22;;
62574;SDS011;53112;45.602;11.904;2023-04-16T14:40:17;160.40;;;57.42;;
62574;SDS011;53112;45.602;11.904;2023-04-16T14:42:42;142.98;;;53.22;;
62574;SDS011;53112;45.602;11.904;2023-04-16T14:45:08;161.35;;;61.95;;
62574;SDS011;53112;45.602;11.904;2023-04-16T14:47:35;156.50;;;57.92;;
62574;SDS011;53112;45.602;11.904;2023-04-16T14:50:02;125.35;;;47.35;;
62574;SDS011;53112;45.602;11.904;2023-04-16T14:52:30;150.57;;;57.55;;
62574;SDS011;53112;45.602;11.904;2023-04-16T14:54:56;180.02;;;70.50;;